Time;durP1;ratioP1;P1;durP2;ratioP2;P2;SDS_P1;SDS_P2;PMS_P1;PMS_P2;Temp;Humidity;BMP_temperature;BMP_pressure;BME280_temperature;BME280_humidity;BME280_pressure;Samples;Min_cycle;Max_cycle;Signal;HPM_P1;HPM_P2
2023/10/23 18:34:27;;;;;;;6.65;3.78;;;;;;;;;;5063519;27;20483;-76
2023/10/23 18:36:55;;;;;;;2.92;0.50;;;;;;;;;;5061220;27;20042;-78
2023/10/23 18:39:22;;;;;;;4.90;3.28;;;;;;;;;;5056480;28;20043;-78
2023/10/23 18:41:51;;;;;;;1.55;1.48;;;;;;;;;;5065344;27;20065;-78
2023/10/23 18:44:19;;;;;;;6.22;4.65;;;;;;;;;;5058394;28;20049;-78
2023/10/23 18:46:47;;;;;;;7.32;5.45;;;;;;;;;;5059422;27;20594;-78
2023/10/23 18:49:15;;;;;;;1.60;1.50;;;;;;;;;;5054757;28;20076;-78
2023/10/23 18:51:43;;;;;;;3.17;2.58;;;;;;;;;;5038737;28;20147;-78
2023/10/23 18:54:10;;;;;;;6.75;5.13;;;;;;;;;;5060523;28;20045;-76
2023/10/23 18:56:38;;;;;;;11.75;5.47;;;;;;;;;;5059182;27;20049;-76
2023/10/23 18:59:07;;;;;;;2.47;2.28;;;;;;;;;;5057868;28;20510;-76
2023/10/23 19:01:35;;;;;;;4.63;2.30;;;;;;;;;;5057104;28;20524;-76
2023/10/23 19:04:02;;;;;;;7.22;4.13;;;;;;;;;;5056282;28;20044;-76
2023/10/23 19:06:30;;;;;;;5.72;3.97;;;;;;;;;;5057213;28;20123;-76
2023/10/23 19:09:02;;;;;;;1.25;1.20;;;;;;;;;;5051434;28;20052;-78
2023/10/23 19:11:29;;;;;;;;;;;;;;;;;;5057303;28;20525;-78
2023/10/23 19:13:57;;;;;;;1.15;1.15;;;;;;;;;;5055922;28;19921;-78
2023/10/23 19:16:24;;;;;;;0.40;0.40;;;;;;;;;;5053248;28;20037;-78
2023/10/23 19:18:52;;;;;;;2.22;2.08;;;;;;;;;;5044810;28;20331;-78
2023/10/23 19:21:19;;;;;;;3.60;1.73;;;;;;;;;;5050023;27;20144;-78
2023/10/23 19:26:10;;;;;;;0.90;0.90;;;;;;;;;;5076797;28;20912;-75
2023/10/23 19:28:38;;;;;;;0.50;0.50;;;;;;;;;;5057529;28;20037;-77
2023/10/23 19:31:13;;;;;;;0.95;0.95;;;;;;;;;;5038087;28;20045;-75
2023/10/23 19:33:42;;;;;;;0.15;0.15;;;;;;;;;;5031222;28;20065;-74
2023/10/23 19:36:11;;;;;;;0.10;0.10;;;;;;;;;;5037962;28;20060;-78
2023/10/23 19:38:41;;;;;;;0.43;0.40;;;;;;;;;;5035214;28;20048;-74
2023/10/23 19:41:14;;;;;;;0.43;0.43;;;;;;;;;;5033173;28;20048;-77
2023/10/23 19:43:44;;;;;;;2.63;2.50;;;;;;;;;;5035703;28;20063;-73
2023/10/23 19:46:13;;;;;;;1.45;1.35;;;;;;;;;;5031813;28;20540;-72
2023/10/23 19:48:41;;;;;;;0.85;0.55;;;;;;;;;;5027207;28;20048;-75
2023/10/23 19:51:18;;;;;;;0.70;0.70;;;;;;;;;;5034774;28;20052;-76
2023/10/23 19:53:46;;;;;;;0.93;0.93;;;;;;;;;;5034717;28;20128;-78
2023/10/23 19:56:20;;;;;;;3.50;2.83;;;;;;;;;;5039337;28;20053;-77
2023/10/23 19:58:57;;;;;;;1.17;0.60;;;;;;;;;;5041125;28;20044;-78
2023/10/23 20:01:25;;;;;;;0.30;0.30;;;;;;;;;;5036816;28;20454;-73
2023/10/23 20:03:52;;;;;;;0.82;0.82;;;;;;;;;;5036239;28;20044;-74
2023/10/23 20:06:20;;;;;;;7.03;1.38;;;;;;;;;;5032086;28;20038;-78
2023/10/23 20:08:47;;;;;;;0.95;0.95;;;;;;;;;;5035679;28;20067;-76
2023/10/23 20:11:15;;;;;;;2.00;1.90;;;;;;;;;;5040714;28;20490;-77
2023/10/23 20:13:42;;;;;;;1.50;1.40;;;;;;;;;;5035358;28;20060;-77
2023/10/23 20:16:10;;;;;;;2.28;2.17;;;;;;;;;;5026092;28;20112;-74
2023/10/23 20:18:39;;;;;;;0.15;0.15;;;;;;;;;;5019304;28;20049;-77
2023/10/23 20:21:06;;;;;;;0.10;0.10;;;;;;;;;;5010021;28;20598;-74
2023/10/23 20:23:34;;;;;;;0.00;0.00;;;;;;;;;;5035356;28;20414;-74
2023/10/23 20:26:02;;;;;;;0.20;0.20;;;;;;;;;;5039124;28;20049;-74
2023/10/23 20:28:30;;;;;;;0.30;0.30;;;;;;;;;;5042212;28;20049;-74
2023/10/23 20:30:58;;;;;;;1.08;0.85;;;;;;;;;;5024817;28;20045;-76
2023/10/23 20:33:25;;;;;;;0.20;0.20;;;;;;;;;;5036638;28;20045;-75
2023/10/23 20:35:53;;;;;;;0.35;0.35;;;;;;;;;;5028018;28;20076;-76
2023/10/23 20:38:21;;;;;;;0.68;0.57;;;;;;;;;;5028253;28;20411;-74
2023/10/23 20:40:48;;;;;;;0.10;0.10;;;;;;;;;;5005958;28;20049;-77
2023/10/23 20:43:16;;;;;;;1.48;1.20;;;;;;;;;;5019751;28;20064;-74
2023/10/23 20:45:43;;;;;;;0.20;0.20;;;;;;;;;;5022324;28;20049;-75
2023/10/23 20:48:11;;;;;;;0.20;0.20;;;;;;;;;;5023582;28;20051;-78
2023/10/23 20:50:39;;;;;;;0.13;0.13;;;;;;;;;;5021810;28;20061;-77
2023/10/23 20:53:07;;;;;;;0.55;0.43;;;;;;;;;;5022749;28;20521;-77
2023/10/23 20:55:37;;;;;;;0.30;0.30;;;;;;;;;;5020236;28;20107;-77
2023/10/23 20:58:04;;;;;;;0.10;0.10;;;;;;;;;;5020903;28;20370;-78
2023/10/23 21:00:32;;;;;;;1.63;1.55;;;;;;;;;;5023984;28;20567;-78
2023/10/23 21:02:59;;;;;;;0.70;0.70;;;;;;;;;;5020968;28;20057;-73
2023/10/23 21:05:27;;;;;;;0.15;0.15;;;;;;;;;;4999947;28;20132;-73
2023/10/23 21:07:54;;;;;;;0.00;0.00;;;;;;;;;;5023973;28;20166;-78
2023/10/23 21:10:22;;;;;;;0.30;0.30;;;;;;;;;;5028360;28;20042;-76
2023/10/23 21:12:49;;;;;;;0.32;0.32;;;;;;;;;;5030701;28;20590;-77
2023/10/23 21:15:17;;;;;;;1.55;1.38;;;;;;;;;;5019047;28;20099;-78
2023/10/23 21:17:44;;;;;;;0.15;0.15;;;;;;;;;;5024635;28;20135;-77
2023/10/23 21:20:13;;;;;;;0.22;0.22;;;;;;;;;;5030335;28;20058;-77
2023/10/23 21:22:40;;;;;;;0.10;0.10;;;;;;;;;;5013684;28;20038;-77
2023/10/23 21:25:08;;;;;;;0.32;0.32;;;;;;;;;;5015269;28;20045;-75
2023/10/23 21:27:36;;;;;;;0.85;0.70;;;;;;;;;;5024215;28;20053;-75
2023/10/23 21:30:04;;;;;;;0.10;0.10;;;;;;;;;;5020965;28;20123;-75
2023/10/23 21:32:31;;;;;;;0.10;0.10;;;;;;;;;;5026368;28;20057;-74
2023/10/23 21:34:59;;;;;;;0.40;0.40;;;;;;;;;;5027142;28;20049;-78
2023/10/23 21:37:26;;;;;;;0.20;0.20;;;;;;;;;;5029054;28;20033;-75
2023/10/23 21:39:54;;;;;;;0.50;0.50;;;;;;;;;;5027444;28;20079;-77
2023/10/23 21:42:22;;;;;;;0.95;0.38;;;;;;;;;;5021653;28;20050;-74
2023/10/23 21:44:50;;;;;;;0.20;0.20;;;;;;;;;;5027119;28;20048;-78
2023/10/23 21:47:17;;;;;;;0.10;0.10;;;;;;;;;;5031754;28;20057;-75
2023/10/23 21:49:45;;;;;;;0.20;0.20;;;;;;;;;;5028960;28;20093;-75
2023/10/23 21:52:13;;;;;;;0.10;0.10;;;;;;;;;;5025830;28;20132;-75
2023/10/23 21:54:41;;;;;;;0.28;0.28;;;;;;;;;;5027811;28;20132;-77
2023/10/23 21:57:09;;;;;;;0.30;0.30;;;;;;;;;;5027570;28;20050;-78
2023/10/23 21:59:50;;;;;;;0.10;0.10;;;;;;;;;;5027526;28;20281;-74
2023/10/23 22:02:18;;;;;;;0.15;0.15;;;;;;;;;;5028495;28;20068;-77
2023/10/23 22:04:46;;;;;;;0.10;0.10;;;;;;;;;;5026714;28;20052;-76
2023/10/23 22:07:13;;;;;;;0.30;0.30;;;;;;;;;;5035180;28;20431;-78
2023/10/23 22:09:41;;;;;;;0.17;0.17;;;;;;;;;;5021968;28;20072;-75
2023/10/23 22:12:09;;;;;;;0.10;0.10;;;;;;;;;;5024847;28;20057;-74
2023/10/23 22:14:36;;;;;;;0.10;0.10;;;;;;;;;;5020180;28;20046;-79
2023/10/23 22:17:04;;;;;;;0.20;0.20;;;;;;;;;;5027017;28;20137;-75
2023/10/23 22:19:32;;;;;;;0.10;0.10;;;;;;;;;;5023452;28;20057;-77
2023/10/23 22:22:00;;;;;;;2.08;1.92;;;;;;;;;;5026918;28;20054;-76
2023/10/23 22:24:28;;;;;;;0.68;0.40;;;;;;;;;;5028424;28;20042;-78
2023/10/23 22:26:55;;;;;;;0.50;0.50;;;;;;;;;;5025101;28;20061;-74
2023/10/23 22:29:23;;;;;;;0.10;0.10;;;;;;;;;;5026148;28;20053;-79
2023/10/23 22:31:50;;;;;;;0.10;0.10;;;;;;;;;;5017204;28;20112;-76
2023/10/23 22:34:18;;;;;;;0.10;0.10;;;;;;;;;;5023979;28;20053;-77
2023/10/23 22:36:46;;;;;;;0.10;0.10;;;;;;;;;;5012482;28;20409;-79
2023/10/23 22:39:13;;;;;;;0.82;0.82;;;;;;;;;;5025278;28;20458;-78
2023/10/23 22:41:41;;;;;;;0.10;0.10;;;;;;;;;;5016132;28;20436;-75
2023/10/23 22:44:09;;;;;;;0.20;0.20;;;;;;;;;;4998060;28;20045;-75
2023/10/23 22:46:37;;;;;;;0.22;0.22;;;;;;;;;;5014579;28;20050;-72
2023/10/23 22:49:06;;;;;;;0.63;0.63;;;;;;;;;;5001464;28;20056;-74
2023/10/23 22:51:34;;;;;;;0.10;0.10;;;;;;;;;;5016415;28;20115;-76
2023/10/23 22:54:02;;;;;;;0.98;0.63;;;;;;;;;;5009797;28;20542;-76
2023/10/23 22:56:31;;;;;;;0.00;0.00;;;;;;;;;;5030495;28;20107;-75
2023/10/23 22:59:05;;;;;;;0.20;0.20;;;;;;;;;;5019855;28;20110;-72
2023/10/23 23:01:33;;;;;;;1.92;1.83;;;;;;;;;;5021142;28;20073;-72
2023/10/23 23:04:01;;;;;;;0.20;0.20;;;;;;;;;;5023554;28;20045;-77
2023/10/23 23:06:31;;;;;;;1.02;1.02;;;;;;;;;;5007541;28;20065;-74
2023/10/23 23:09:00;;;;;;;0.00;0.00;;;;;;;;;;5020054;28;20053;-76
2023/10/23 23:11:28;;;;;;;2.60;2.47;;;;;;;;;;5023461;28;20041;-77
2023/10/23 23:13:55;;;;;;;0.10;0.10;;;;;;;;;;5021870;28;20057;-76
2023/10/23 23:16:25;;;;;;;0.00;0.00;;;;;;;;;;5023283;28;20077;-76
2023/10/23 23:18:53;;;;;;;0.10;0.10;;;;;;;;;;5029220;28;20103;-79
2023/10/23 23:21:22;;;;;;;0.20;0.20;;;;;;;;;;5025776;28;20405;-72
2023/10/23 23:23:49;;;;;;;0.00;0.00;;;;;;;;;;5017128;28;20049;-77
2023/10/23 23:26:17;;;;;;;0.63;0.63;;;;;;;;;;5023864;28;20945;-78
2023/10/23 23:28:44;;;;;;;0.38;0.32;;;;;;;;;;5024794;28;20427;-79
2023/10/23 23:31:12;;;;;;;0.10;0.10;;;;;;;;;;5023546;28;20034;-79
2023/10/23 23:33:39;;;;;;;0.10;0.10;;;;;;;;;;5019897;28;20045;-75
2023/10/23 23:36:07;;;;;;;0.10;0.10;;;;;;;;;;5021782;28;20099;-74
2023/10/23 23:38:35;;;;;;;0.10;0.10;;;;;;;;;;5023656;28;20152;-79
2023/10/23 23:41:02;;;;;;;0.10;0.10;;;;;;;;;;5027268;28;20080;-77
2023/10/23 23:43:30;;;;;;;0.10;0.10;;;;;;;;;;5025721;28;20641;-75
2023/10/23 23:46:00;;;;;;;1.17;1.15;;;;;;;;;;5023030;28;20049;-79
2023/10/23 23:48:28;;;;;;;0.20;0.20;;;;;;;;;;5029188;28;20049;-75
2023/10/23 23:50:55;;;;;;;0.30;0.30;;;;;;;;;;5021329;28;20080;-76
2023/10/23 23:53:23;;;;;;;0.10;0.10;;;;;;;;;;5027139;28;20049;-77
2023/10/23 23:55:50;;;;;;;0.95;0.95;;;;;;;;;;5027420;28;20049;-75
2023/10/23 23:58:18;;;;;;;0.55;0.55;;;;;;;;;;5019738;28;20049;-79
